createdAt,value
2022-12-13T00:01:51.393Z,30.10
2022-12-13T00:04:23.479Z,32.50
2022-12-13T00:06:57.960Z,31.80
2022-12-13T00:09:29.390Z,29.03
2022-12-13T00:12:11.006Z,26.57
2022-12-13T00:14:42.323Z,30.13
2022-12-13T00:17:10.766Z,26.77
2022-12-13T00:19:39.603Z,28.40
2022-12-13T00:22:12.614Z,29.00
2022-12-13T00:24:46.134Z,27.87
2022-12-13T00:27:16.946Z,24.23
2022-12-13T00:29:49.863Z,27.73
2022-12-13T00:32:23.209Z,25.17
2022-12-13T00:34:54.569Z,22.93
2022-12-13T00:37:27.571Z,23.60
2022-12-13T00:39:57.596Z,24.50
2022-12-13T00:42:28.090Z,25.33
2022-12-13T00:44:59.434Z,24.27
2022-12-13T00:47:28.077Z,24.80
2022-12-13T00:49:57.124Z,25.67
2022-12-13T00:52:28.771Z,23.10
2022-12-13T00:54:57.531Z,22.77
2022-12-13T00:57:30.229Z,21.90
2022-12-13T01:00:12.268Z,25.03
2022-12-13T01:02:41.965Z,27.93
2022-12-13T01:05:14.603Z,20.93
2022-12-13T01:07:45.379Z,26.53
2022-12-13T01:10:16.854Z,21.57
2022-12-13T01:12:52.116Z,24.20
2022-12-13T01:15:25.179Z,20.80
2022-12-13T01:17:54.270Z,23.77
2022-12-13T01:20:27.587Z,24.27
2022-12-13T01:23:00.389Z,25.67
2022-12-13T01:25:29.392Z,20.17
2022-12-13T01:28:00.253Z,24.33
2022-12-13T01:30:37.244Z,25.00
2022-12-13T01:33:17.649Z,23.27
2022-12-13T01:35:57.183Z,24.03
2022-12-13T01:38:29.143Z,23.53
2022-12-13T01:40:59.207Z,21.87
2022-12-13T01:43:55.171Z,21.43
2022-12-13T01:46:25.709Z,23.43
2022-12-13T01:49:19.612Z,24.10
2022-12-13T01:51:57.446Z,26.27
2022-12-13T01:54:37.146Z,22.80
2022-12-13T01:57:12.055Z,22.70
2022-12-13T01:59:53.640Z,23.33
2022-12-13T02:02:52.968Z,18.87
2022-12-13T02:05:37.550Z,26.00
2022-12-13T02:08:07.271Z,22.50
2022-12-13T02:10:40.042Z,22.40
2022-12-13T02:13:09.323Z,21.23
2022-12-13T02:18:47.562Z,24.67
2022-12-13T02:21:27.096Z,24.20
2022-12-13T02:24:30.085Z,24.63
2022-12-13T02:27:35.347Z,23.87
2022-12-13T02:30:30.698Z,23.23
2022-12-13T02:33:34.607Z,25.33
2022-12-13T02:36:10.124Z,20.80
2022-12-13T02:38:53.751Z,19.50
2022-12-13T02:41:34.290Z,19.43
2022-12-13T02:44:22.768Z,22.23
2022-12-13T02:47:04.611Z,21.73
2022-12-13T02:49:42.489Z,23.23
2022-12-13T02:52:14.213Z,23.10
2022-12-13T02:54:54.226Z,25.80
2022-12-13T02:57:31.462Z,23.43
2022-12-13T03:00:03.999Z,26.87
2022-12-13T03:02:51.977Z,22.50
2022-12-13T03:05:47.218Z,20.47
2022-12-13T03:11:25.656Z,22.67
2022-12-13T03:13:57.234Z,25.37
2022-12-13T03:16:48.935Z,22.37
2022-12-13T03:19:24.843Z,25.07
2022-12-13T03:22:05.944Z,19.00
2022-12-13T03:24:37.120Z,24.00
2022-12-13T03:27:10.113Z,19.57
2022-12-13T03:29:38.586Z,21.60
2022-12-13T03:32:10.610Z,20.63
2022-12-13T03:34:53.374Z,20.57
2022-12-13T03:37:29.742Z,24.33
2022-12-13T03:40:02.202Z,27.53
2022-12-13T03:42:46.085Z,18.87
2022-12-13T03:45:22.453Z,20.07
2022-12-13T03:47:53.477Z,20.10
2022-12-13T03:50:26.541Z,21.30
2022-12-13T03:52:59.935Z,21.60
2022-12-13T03:55:30.439Z,19.53
2022-12-13T03:58:03.230Z,19.27
2022-12-13T04:00:52.768Z,22.07
2022-12-13T04:03:36.948Z,20.40
2022-12-13T04:06:10.945Z,24.23
2022-12-13T04:08:51.266Z,20.53
2022-12-13T04:11:42.255Z,18.23
2022-12-13T04:14:21.578Z,23.13
2022-12-13T04:16:54.163Z,20.97
2022-12-13T04:19:24.372Z,23.00
2022-12-13T04:21:57.338Z,19.40
2022-12-13T04:24:32.329Z,29.27
2022-12-13T04:27:01.854Z,20.07
2022-12-13T04:29:34.570Z,18.13
2022-12-13T04:32:26.571Z,24.17
2022-12-13T04:35:05.937Z,24.73
2022-12-13T04:37:37.108Z,23.17
2022-12-13T04:40:12.833Z,24.17
2022-12-13T04:42:53.833Z,22.30
2022-12-13T04:45:28.050Z,20.87
2022-12-13T04:48:01.240Z,25.40
2022-12-13T04:50:30.040Z,21.97
2022-12-13T04:53:07.333Z,23.97
2022-12-13T04:55:36.370Z,21.13
2022-12-13T04:58:06.366Z,21.90
2022-12-13T05:00:34.692Z,23.63
2022-12-13T05:03:03.560Z,20.73
2022-12-13T05:05:36.293Z,21.83
2022-12-13T05:08:16.528Z,24.23
2022-12-13T05:11:04.539Z,22.93
2022-12-13T05:16:24.991Z,19.13
2022-12-13T05:18:53.638Z,21.43
2022-12-13T05:21:23.410Z,23.47
2022-12-13T05:24:02.531Z,21.50
2022-12-13T05:26:39.627Z,23.03
2022-12-13T05:29:10.388Z,23.97
2022-12-13T05:31:39.171Z,22.50
2022-12-13T05:34:09.792Z,29.20
2022-12-13T05:36:45.767Z,21.07
2022-12-13T05:39:28.423Z,26.97
2022-12-13T05:42:02.006Z,21.40
2022-12-13T05:44:36.588Z,21.27
2022-12-13T05:47:07.028Z,24.60
2022-12-13T05:49:40.763Z,23.73
2022-12-13T05:52:30.795Z,27.17
2022-12-13T05:55:05.455Z,22.77
2022-12-13T05:57:36.708Z,23.77
2022-12-13T06:00:29.918Z,25.63
2022-12-13T06:03:01.628Z,23.50
2022-12-13T06:05:30.595Z,23.17
2022-12-13T06:08:02.273Z,27.17
2022-12-13T06:10:35.186Z,22.03
2022-12-13T06:13:21.568Z,26.67
2022-12-13T06:16:23.140Z,24.73
2022-12-13T06:19:02.841Z,26.60
2022-12-13T06:21:45.540Z,24.50
2022-12-13T06:24:16.596Z,23.67
2022-12-13T06:27:08.449Z,24.50
2022-12-13T06:29:41.572Z,23.53
2022-12-13T06:32:13.948Z,24.50
2022-12-13T06:35:01.860Z,20.77
2022-12-13T06:38:01.736Z,25.80
2022-12-13T06:40:30.704Z,21.80
2022-12-13T06:43:13.372Z,25.20
2022-12-13T06:45:45.645Z,23.13
2022-12-13T06:48:17.510Z,30.10
2022-12-13T06:51:22.631Z,28.50
2022-12-13T06:53:56.863Z,30.57
2022-12-13T06:56:34.021Z,29.50
2022-12-13T06:59:11.797Z,27.93
2022-12-13T07:02:04.876Z,31.47
2022-12-13T07:04:42.677Z,26.90
2022-12-13T07:07:27.306Z,24.80
2022-12-13T07:09:58.731Z,27.67
2022-12-13T07:12:30.082Z,23.80
2022-12-13T07:15:10.816Z,24.67
2022-12-13T07:17:40.488Z,23.80
2022-12-13T07:20:15.343Z,22.90
2022-12-13T07:23:01.547Z,30.57
2022-12-13T07:25:30.516Z,25.03
2022-12-13T07:28:07.731Z,20.87
2022-12-13T07:30:49.762Z,23.07
2022-12-13T07:33:27.838Z,30.37
2022-12-13T07:38:58.374Z,24.43
2022-12-13T07:41:29.806Z,29.20
2022-12-13T07:44:07.412Z,21.23
2022-12-13T07:46:40.701Z,33.37
2022-12-13T07:49:23.444Z,31.73
2022-12-13T07:52:00.334Z,30.10
2022-12-13T07:54:38.232Z,37.17
2022-12-13T07:57:27.453Z,31.63
2022-12-13T08:02:53.214Z,30.87
2022-12-13T08:05:38.545Z,42.60
2022-12-13T08:08:23.077Z,27.03
2022-12-13T08:11:05.010Z,48.50
2022-12-13T08:13:42.637Z,148.40
2022-12-13T08:19:04.767Z,241.17
2022-12-13T08:21:54.594Z,255.93
2022-12-13T08:24:28.903Z,226.83
2022-12-13T08:27:08.858Z,205.73
2022-12-13T08:32:56.824Z,158.13
2022-12-13T08:35:22.514Z,149.97
2022-12-13T08:38:01.107Z,165.67
2022-12-13T08:40:36.170Z,155.63
2022-12-13T08:43:12.844Z,137.30
2022-12-13T08:45:51.238Z,160.70
2022-12-13T08:48:33.158Z,162.93
2022-12-13T08:51:09.926Z,155.70
2022-12-13T08:53:41.783Z,169.70
2022-12-13T08:56:13.495Z,162.30
2022-12-13T08:58:44.398Z,147.47
2022-12-13T09:01:13.890Z,143.03
2022-12-13T09:04:09.741Z,139.60
2022-12-13T09:06:39.081Z,153.10
2022-12-13T09:09:10.688Z,129.97
2022-12-13T09:11:41.205Z,119.23
2022-12-13T09:14:14.227Z,93.60
2022-12-13T09:16:50.535Z,90.20
2022-12-13T09:19:28.158Z,66.83
2022-12-13T09:22:02.438Z,74.43
2022-12-13T09:24:35.757Z,57.07
2022-12-13T09:27:09.754Z,45.43
2022-12-13T09:29:40.106Z,42.60
2022-12-13T09:32:41.391Z,45.87
2022-12-13T09:35:16.318Z,36.60
2022-12-13T09:37:59.394Z,35.30
2022-12-13T09:40:41.295Z,34.63
2022-12-13T09:43:31.877Z,38.90
2022-12-13T09:46:13.229Z,42.00
2022-12-13T09:49:01.666Z,31.40
2022-12-13T09:51:41.499Z,39.00
2022-12-13T09:54:48.341Z,36.47
2022-12-13T09:57:30.977Z,34.20
2022-12-13T10:02:47.115Z,33.63
2022-12-13T10:05:34.295Z,36.03
2022-12-13T10:08:15.470Z,37.30
2022-12-13T10:10:53.558Z,32.83
2022-12-13T10:13:27.497Z,40.50
2022-12-13T10:16:06.984Z,32.60
2022-12-13T10:18:42.546Z,36.97
2022-12-13T10:21:41.381Z,34.23
2022-12-13T10:24:34.521Z,28.27
2022-12-13T10:27:19.501Z,30.00
2022-12-13T10:30:03.520Z,32.83
2022-12-13T10:32:38.864Z,32.53
2022-12-13T10:35:42.576Z,37.03
2022-12-13T10:38:32.148Z,32.60
2022-12-13T10:41:01.291Z,30.53
2022-12-13T10:46:25.250Z,34.77
2022-12-13T10:49:17.523Z,34.23
2022-12-13T10:51:54.539Z,32.80
2022-12-13T10:55:01.269Z,33.37
2022-12-13T10:57:38.973Z,32.03
2022-12-13T11:00:38.942Z,33.67
2022-12-13T11:03:16.502Z,31.93
2022-12-13T11:05:50.915Z,32.97
2022-12-13T11:08:32.960Z,33.30
2022-12-13T11:11:03.191Z,34.73
2022-12-13T11:13:41.012Z,34.00
2022-12-13T11:16:32.067Z,31.47
2022-12-13T11:19:08.748Z,34.67
2022-12-13T11:21:41.529Z,34.77
2022-12-13T11:24:34.986Z,33.63
2022-12-13T11:27:10.805Z,33.67
2022-12-13T11:30:07.413Z,30.03
2022-12-13T11:33:04.925Z,34.60
2022-12-13T11:35:50.601Z,28.17
2022-12-13T11:38:31.745Z,33.63
2022-12-13T11:41:31.929Z,33.93
2022-12-13T11:44:11.059Z,30.63
2022-12-13T11:46:45.496Z,30.27
2022-12-13T11:49:32.422Z,30.53
2022-12-13T11:52:14.268Z,34.53
2022-12-13T11:54:54.078Z,29.53
2022-12-13T11:57:34.745Z,30.30
2022-12-13T12:00:13.048Z,34.13
2022-12-13T12:03:00.745Z,29.43
2022-12-13T12:05:35.236Z,34.17
2022-12-13T12:08:33.378Z,30.73
2022-12-13T12:11:10.100Z,33.70
2022-12-13T12:13:52.144Z,36.20
2022-12-13T12:16:37.151Z,33.10
2022-12-13T12:19:28.742Z,27.93
2022-12-13T12:22:31.320Z,33.50
2022-12-13T12:25:22.386Z,30.33
2022-12-13T12:27:59.516Z,31.67
2022-12-13T12:30:46.005Z,37.73
2022-12-13T12:33:31.252Z,35.80
2022-12-13T12:36:29.979Z,31.97
2022-12-13T12:39:26.511Z,35.23
2022-12-13T12:42:22.348Z,34.93
2022-12-13T12:45:10.513Z,35.77
2022-12-13T12:48:45.481Z,33.13
2022-12-13T12:50:59.350Z,32.73
2022-12-13T12:53:57.305Z,34.50
2022-12-13T12:56:51.077Z,29.30
2022-12-13T12:59:31.499Z,35.70
2022-12-13T13:05:55.813Z,35.03
2022-12-13T13:08:40.119Z,33.83
2022-12-13T13:11:23.842Z,34.57
2022-12-13T13:14:09.626Z,32.23
2022-12-13T13:20:16.150Z,30.47
2022-12-13T13:23:17.593Z,28.57
2022-12-13T13:26:26.799Z,31.73
2022-12-13T13:51:49.336Z,33.47
2022-12-13T13:55:10.228Z,28.90
2022-12-13T13:58:21.649Z,38.43
2022-12-13T14:01:35.209Z,33.47
2022-12-13T14:04:38.135Z,35.77
2022-12-13T14:08:12.932Z,36.90
2022-12-13T14:11:21.662Z,34.07
2022-12-13T14:14:38.358Z,33.97
2022-12-13T14:17:45.490Z,33.40
2022-12-13T14:20:54.991Z,35.70
2022-12-13T14:23:59.756Z,37.03
2022-12-13T14:26:53.568Z,31.43
2022-12-13T14:29:29.421Z,31.57
2022-12-13T14:32:06.198Z,34.37
2022-12-13T14:34:36.404Z,32.83
2022-12-13T14:37:09.706Z,33.03
2022-12-13T14:39:45.544Z,30.30
2022-12-13T14:42:37.128Z,34.73
2022-12-13T14:45:26.535Z,38.63
2022-12-13T14:47:57.368Z,40.60
2022-12-13T14:50:31.848Z,33.93
2022-12-13T14:53:12.000Z,36.17
2022-12-13T14:55:45.956Z,34.37
2022-12-13T14:58:23.151Z,33.23
2022-12-13T15:01:04.123Z,37.00
2022-12-13T15:03:35.681Z,35.07
2022-12-13T15:06:25.102Z,33.60
2022-12-13T15:09:03.007Z,36.60
2022-12-13T15:11:40.122Z,32.83
2022-12-13T15:14:36.189Z,32.83
2022-12-13T15:17:04.918Z,34.80
2022-12-13T15:22:42.439Z,33.30
2022-12-13T15:25:42.851Z,37.03
2022-12-13T15:28:36.250Z,34.33
2022-12-13T15:31:28.764Z,33.50
2022-12-13T15:34:55.572Z,31.30
2022-12-13T15:37:44.032Z,33.43
2022-12-13T15:40:28.451Z,32.20
2022-12-13T15:43:18.474Z,30.87
2022-12-13T15:46:13.797Z,34.50
2022-12-13T15:49:16.148Z,34.43
2022-12-13T15:52:01.705Z,33.43
2022-12-13T15:54:32.358Z,30.60
2022-12-13T15:57:25.292Z,33.57
2022-12-13T16:00:35.202Z,32.60
2022-12-13T16:03:31.227Z,30.13
2022-12-13T16:06:01.737Z,33.23
2022-12-13T16:08:35.803Z,33.17
2022-12-13T16:11:29.614Z,32.07
2022-12-13T16:14:31.818Z,30.77
2022-12-13T16:17:16.048Z,36.97
2022-12-13T16:20:30.541Z,33.83
2022-12-13T16:23:51.400Z,33.43
2022-12-13T16:26:39.963Z,36.67
2022-12-13T16:32:49.630Z,30.13
2022-12-13T16:35:27.240Z,30.77
2022-12-13T16:38:12.037Z,33.93
2022-12-13T16:41:09.994Z,31.23
2022-12-13T16:44:02.722Z,37.10
2022-12-13T16:47:12.088Z,34.40
2022-12-13T16:49:57.202Z,35.73
2022-12-13T16:52:56.713Z,29.20
2022-12-13T16:55:28.165Z,31.50
2022-12-13T16:58:15.002Z,34.70
2022-12-13T17:00:51.705Z,34.67
2022-12-13T17:03:58.550Z,32.07
2022-12-13T17:06:27.162Z,34.77
2022-12-13T17:08:58.119Z,35.80
2022-12-13T17:11:26.953Z,36.57
2022-12-13T17:14:04.409Z,33.20
2022-12-13T17:16:34.185Z,33.37
2022-12-13T17:19:14.052Z,31.73
2022-12-13T17:21:55.897Z,36.10
2022-12-13T17:24:24.602Z,31.83
2022-12-13T17:27:00.814Z,29.60
2022-12-13T17:29:29.627Z,33.90
2022-12-13T17:32:08.120Z,34.03
2022-12-13T17:34:36.634Z,29.90
2022-12-13T17:37:11.012Z,28.57
2022-12-13T17:40:00.472Z,31.97
2022-12-13T17:42:50.968Z,35.23
2022-12-13T17:45:31.328Z,35.53
2022-12-13T17:48:09.873Z,43.60
2022-12-13T17:50:42.453Z,35.80
2022-12-13T17:53:13.484Z,33.47
2022-12-13T17:55:52.816Z,35.73
2022-12-13T17:58:51.901Z,41.23
2022-12-13T18:01:30.451Z,41.90
2022-12-13T18:04:12.417Z,46.57
2022-12-13T18:09:31.892Z,40.97
2022-12-13T18:12:08.755Z,49.93
2022-12-13T18:15:08.754Z,49.43
2022-12-13T18:18:10.240Z,39.63
2022-12-13T18:22:54.845Z,34.57
2022-12-13T18:25:32.233Z,32.53
2022-12-13T18:28:12.698Z,33.50
2022-12-13T18:31:03.141Z,33.03
2022-12-13T18:33:36.971Z,31.67
2022-12-13T18:36:08.790Z,34.30
2022-12-13T18:38:43.441Z,37.67
2022-12-13T18:41:22.993Z,34.40
2022-12-13T18:44:37.951Z,31.87
2022-12-13T18:47:19.447Z,34.80
2022-12-13T18:50:04.399Z,35.20
2022-12-13T18:52:35.917Z,33.87
2022-12-13T18:55:16.503Z,33.07
2022-12-13T18:57:50.463Z,34.33
2022-12-13T19:00:27.300Z,34.60
2022-12-13T19:03:02.722Z,30.30
2022-12-13T19:05:35.963Z,32.03
2022-12-13T19:08:12.245Z,34.50
2022-12-13T19:11:07.152Z,35.93
2022-12-13T19:14:03.500Z,36.17
2022-12-13T19:17:03.303Z,29.00
2022-12-13T19:19:37.288Z,27.50
2022-12-13T19:22:06.768Z,29.93
2022-12-13T19:24:38.477Z,32.47
2022-12-13T19:27:10.918Z,29.63
2022-12-13T19:29:39.561Z,31.93
2022-12-13T19:32:08.084Z,32.10
2022-12-13T19:34:43.838Z,32.43
2022-12-13T19:37:13.020Z,27.97
2022-12-13T19:39:43.032Z,39.33
2022-12-13T19:42:25.493Z,32.43
2022-12-13T19:44:59.937Z,31.80
2022-12-13T19:47:28.458Z,29.90
2022-12-13T19:49:56.774Z,29.00
2022-12-13T19:52:25.126Z,34.50
2022-12-13T19:54:56.926Z,38.03
2022-12-13T19:57:27.090Z,31.57
2022-12-13T20:00:00.151Z,32.30
2022-12-13T20:02:28.727Z,34.93
2022-12-13T20:04:57.378Z,32.30
2022-12-13T20:07:27.667Z,27.20
2022-12-13T20:09:56.077Z,34.53
2022-12-13T20:12:29.639Z,29.77
2022-12-13T20:15:02.807Z,34.73
2022-12-13T20:17:31.163Z,33.50
2022-12-13T20:20:01.937Z,36.23
2022-12-13T20:22:30.410Z,35.67
2022-12-13T20:24:58.828Z,34.97
2022-12-13T20:27:31.457Z,29.00
2022-12-13T20:30:00.114Z,31.67
2022-12-13T20:32:30.978Z,29.30
2022-12-13T20:35:16.288Z,33.33
2022-12-13T20:37:51.947Z,34.40
2022-12-13T20:40:26.421Z,33.10
2022-12-13T20:42:56.268Z,33.37
2022-12-13T20:45:29.796Z,27.83
2022-12-13T20:48:01.025Z,30.20
2022-12-13T20:50:29.391Z,27.90
2022-12-13T20:53:06.407Z,30.63
2022-12-13T20:55:38.244Z,34.57
2022-12-13T20:58:07.910Z,29.83
2022-12-13T21:00:36.596Z,30.40
2022-12-13T21:03:05.300Z,34.67
2022-12-13T21:05:34.379Z,29.03
2022-12-13T21:08:19.702Z,32.87
2022-12-13T21:11:22.867Z,31.53
2022-12-13T21:13:59.964Z,33.67
2022-12-13T21:16:33.901Z,32.63
2022-12-13T21:19:05.006Z,30.27
2022-12-13T21:21:33.523Z,35.80
2022-12-13T21:24:09.066Z,38.50
2022-12-13T21:26:40.160Z,35.73
2022-12-13T21:29:15.592Z,31.47
2022-12-13T21:31:50.885Z,45.13
2022-12-13T21:34:21.841Z,36.47
2022-12-13T21:36:52.645Z,41.33
2022-12-13T21:39:28.013Z,41.17
2022-12-13T21:41:56.769Z,39.60
2022-12-13T21:44:26.399Z,35.00
2022-12-13T21:47:13.244Z,31.50
2022-12-13T21:49:42.204Z,27.27
2022-12-13T21:52:19.312Z,28.33
2022-12-13T21:54:48.071Z,33.77
2022-12-13T21:57:55.648Z,28.17
2022-12-13T22:00:25.224Z,26.83
2022-12-13T22:02:53.505Z,26.53
2022-12-13T22:05:24.232Z,28.67
2022-12-13T22:07:55.237Z,28.83
2022-12-13T22:10:24.053Z,27.30
2022-12-13T22:12:53.666Z,29.13
2022-12-13T22:15:24.603Z,27.03
2022-12-13T22:20:12.079Z,25.53
2022-12-13T22:22:45.351Z,22.60
2022-12-13T22:25:14.562Z,22.80
2022-12-13T22:27:42.586Z,21.13
2022-12-13T22:30:14.362Z,24.33
2022-12-13T22:32:42.678Z,31.50
2022-12-13T22:35:19.996Z,25.30
2022-12-13T22:37:52.924Z,27.50
2022-12-13T22:40:23.930Z,22.93
2022-12-13T22:42:58.783Z,23.67
2022-12-13T22:45:27.170Z,25.30
2022-12-13T22:47:58.279Z,22.33
2022-12-13T22:50:30.293Z,22.37
2022-12-13T22:53:02.474Z,21.73
2022-12-13T22:55:31.124Z,22.10
2022-12-13T22:57:59.693Z,23.00
2022-12-13T23:00:30.471Z,20.77
2022-12-13T23:03:05.085Z,22.43
2022-12-13T23:05:34.892Z,20.53
2022-12-13T23:08:03.438Z,19.80
2022-12-13T23:10:49.168Z,19.83
2022-12-13T23:13:17.644Z,20.67
2022-12-13T23:15:49.288Z,20.40
2022-12-13T23:18:17.895Z,21.70
2022-12-13T23:20:50.651Z,21.20
2022-12-13T23:23:22.320Z,20.13
2022-12-13T23:25:52.733Z,24.17
2022-12-13T23:28:23.246Z,21.30
2022-12-13T23:31:11.686Z,22.13
2022-12-13T23:33:45.517Z,22.43
2022-12-13T23:39:12.636Z,21.13
2022-12-13T23:41:43.927Z,19.27
2022-12-13T23:44:27.781Z,19.47
2022-12-13T23:46:56.678Z,24.63
2022-12-13T23:49:24.997Z,29.60
2022-12-13T23:51:57.519Z,27.07
2022-12-13T23:54:27.533Z,23.07
2022-12-13T23:56:55.905Z,22.47
2022-12-13T23:59:28.468Z,17.10
